Time;durP1;ratioP1;P1;durP2;ratioP2;P2;SDS_P1;SDS_P2;PMS_P1;PMS_P2;Temp;Humidity;BMP_temperature;BMP_pressure;BME280_temperature;BME280_humidity;BME280_pressure;Samples;Min_cycle;Max_cycle;Signal;HPM_P1;HPM_P2
2021/12/06 00:00:00;;;;;;;393.15;136.18;;;;;;;8.21;93.06;98911.75;344170;28;1785;-71
2021/12/06 00:00:20;;;;;;;393.73;137.40;;;;;;;8.21;92.49;98907.41;343798;28;1616;-71
2021/12/06 00:00:41;;;;;;;391.15;136.63;;;;;;;8.24;93.18;98911.59;346099;28;1761;-71
2021/12/06 00:00:57;;;;;;;388.95;138.07;;;;;;;8.22;92.55;98909.09;344979;28;1803;-71
2021/12/06 00:01:15;;;;;;;391.33;139.23;;;;;;;8.24;92.63;98909.84;344990;28;1762;-71
2021/12/06 00:01:42;;;;;;;391.92;136.25;;;;;;;8.24;92.65;98922.03;343874;28;1595;-71
2021/12/06 00:02:06;;;;;;;392.90;135.73;;;;;;;8.22;92.67;98913.44;346260;28;1559;-71
2021/12/06 00:02:19;;;;;;;392.92;135.65;;;;;;;8.21;92.70;98924.78;346674;28;2198;-71
2021/12/06 00:02:29;;;;;;;394.63;136.43;;;;;;;8.18;93.00;98920.56;346031;28;1915;-71
2021/12/06 00:02:40;;;;;;;394.00;136.88;;;;;;;8.19;92.80;98924.00;347871;28;2191;-71
2021/12/06 00:02:51;;;;;;;394.87;136.37;;;;;;;8.17;92.77;98918.00;345015;28;1698;-71
2021/12/06 00:03:04;;;;;;;394.98;136.55;;;;;;;8.17;93.25;98918.00;344739;28;1755;-71
2021/12/06 00:03:18;;;;;;;395.95;138.80;;;;;;;8.17;92.75;98924.06;344135;28;2146;-71
2021/12/06 00:03:40;;;;;;;396.55;140.63;;;;;;;8.16;92.99;98924.97;346096;28;1708;-72
2021/12/06 00:03:53;;;;;;;395.88;136.90;;;;;;;8.19;92.96;98918.78;346191;28;1607;-71
2021/12/06 00:04:12;;;;;;;393.98;137.10;;;;;;;8.21;93.37;98920.44;346245;28;1518;-71
2021/12/06 00:04:26;;;;;;;392.15;137.80;;;;;;;8.22;93.11;98922.13;346554;28;1495;-71
2021/12/06 00:04:37;;;;;;;392.58;137.60;;;;;;;8.23;92.75;98921.19;344165;28;1943;-71
2021/12/06 00:04:48;;;;;;;392.75;138.13;;;;;;;8.23;93.24;98921.19;342548;28;1652;-71
2021/12/06 00:04:58;;;;;;;393.03;138.40;;;;;;;8.24;92.78;98922.88;344151;28;1655;-71
2021/12/06 00:05:09;;;;;;;395.23;138.23;;;;;;;8.23;93.01;98921.19;346606;28;1392;-71
2021/12/06 00:05:20;;;;;;;396.70;138.27;;;;;;;8.25;92.40;98921.97;347720;28;1836;-71
2021/12/06 00:05:31;;;;;;;396.87;136.17;;;;;;;8.25;92.62;98923.72;345244;28;2502;-71
2021/12/06 00:05:41;;;;;;;396.90;135.80;;;;;;;8.26;92.81;98923.66;346210;28;1207;-71
2021/12/06 00:05:51;;;;;;;395.75;136.27;;;;;;;8.26;93.01;98928.88;344922;28;1608;-71
2021/12/06 00:06:02;;;;;;;394.80;138.67;;;;;;;8.26;92.73;98925.41;344931;28;2115;-71
2021/12/06 00:06:12;;;;;;;394.48;138.65;;;;;;;8.25;92.98;98927.19;344969;28;1629;-71
2021/12/06 00:06:24;;;;;;;393.83;137.70;;;;;;;8.22;92.89;98924.72;346479;28;1223;-71
2021/12/06 00:06:37;;;;;;;397.33;137.10;;;;;;;8.24;93.11;98925.47;343028;28;1821;-71
2021/12/06 00:06:49;;;;;;;398.17;138.25;;;;;;;8.24;92.64;98925.47;344632;28;1969;-71
2021/12/06 00:07:02;;;;;;;400.15;139.88;;;;;;;8.23;93.00;98923.78;345690;28;2078;-71
2021/12/06 00:07:17;;;;;;;396.50;138.43;;;;;;;8.26;93.17;98934.09;344685;28;1626;-71
2021/12/06 00:07:27;;;;;;;394.17;136.77;;;;;;;8.26;93.26;98926.25;343908;28;1454;-71
2021/12/06 00:07:38;;;;;;;396.20;137.03;;;;;;;8.28;92.79;98929.66;346051;28;991;-71
2021/12/06 00:07:48;;;;;;;395.83;139.18;;;;;;;8.27;92.71;98927.97;345481;28;1581;-71
2021/12/06 00:07:59;;;;;;;393.40;138.88;;;;;;;8.27;93.04;98935.78;344330;28;1698;-71
2021/12/06 00:08:09;;;;;;;391.87;137.97;;;;;;;8.27;92.87;98930.56;343407;28;1633;-71
2021/12/06 00:08:19;;;;;;;391.70;137.80;;;;;;;8.27;92.80;98941.00;345742;28;1786;-71
2021/12/06 00:08:30;;;;;;;391.43;138.10;;;;;;;8.28;92.72;98934.88;345297;28;1353;-71
2021/12/06 00:08:41;;;;;;;394.70;138.63;;;;;;;8.27;92.76;98929.72;343884;28;895;-71
2021/12/06 00:08:51;;;;;;;397.00;138.90;;;;;;;8.26;92.59;98936.69;342126;28;1915;-71
2021/12/06 00:09:04;;;;;;;396.83;137.63;;;;;;;8.26;92.97;98939.28;345672;28;1859;-71
2021/12/06 00:09:17;;;;;;;396.08;136.18;;;;;;;8.28;92.94;98934.88;343901;28;1870;-71
2021/12/06 00:09:28;;;;;;;395.70;136.45;;;;;;;8.30;92.53;98930.44;344887;28;1849;-71
2021/12/06 00:09:38;;;;;;;390.25;136.13;;;;;;;8.31;92.81;98932.13;344332;28;2105;-71
2021/12/06 00:09:49;;;;;;;390.10;137.27;;;;;;;8.30;92.82;98933.03;344916;28;1914;-71
2021/12/06 00:10:00;;;;;;;387.73;136.40;;;;;;;8.30;92.68;98933.03;343505;28;2248;-71
2021/12/06 00:10:10;;;;;;;387.23;135.73;;;;;;;8.31;93.00;98934.75;344365;28;1370;-71
2021/12/06 00:10:21;;;;;;;385.77;133.80;;;;;;;8.29;92.63;98940.94;343293;28;1817;-71
2021/12/06 00:10:31;;;;;;;389.70;135.93;;;;;;;8.28;92.78;98936.63;342049;28;1661;-71
2021/12/06 00:10:42;;;;;;;390.20;134.95;;;;;;;8.26;93.11;98941.91;342476;28;1102;-71
2021/12/06 00:10:53;;;;;;;392.55;137.07;;;;;;;8.27;92.69;98942.75;344880;28;1363;-71
2021/12/06 00:11:08;;;;;;;391.37;138.17;;;;;;;8.27;92.94;98943.59;343653;28;1477;-71
2021/12/06 00:11:19;;;;;;;388.25;137.88;;;;;;;8.27;92.95;98943.59;343005;28;1818;-71
2021/12/06 00:11:29;;;;;;;388.83;137.70;;;;;;;8.28;93.00;98942.69;344288;28;1342;-71
2021/12/06 00:11:39;;;;;;;391.70;138.27;;;;;;;8.29;92.67;98941.78;344739;28;845;-71
2021/12/06 00:11:56;;;;;;;395.43;139.70;;;;;;;8.30;92.70;98948.69;344522;28;1978;-71
2021/12/06 00:12:08;;;;;;;394.25;136.13;;;;;;;8.29;92.79;98947.00;346345;28;1496;-71
2021/12/06 00:12:20;;;;;;;392.38;135.77;;;;;;;8.30;92.83;98940.88;344585;28;2097;-71
2021/12/06 00:12:30;;;;;;;393.42;138.48;;;;;;;8.32;92.80;98940.78;345075;28;1789;-71
2021/12/06 00:12:42;;;;;;;392.00;138.23;;;;;;;8.32;92.86;98943.41;346496;28;860;-72
2021/12/06 00:12:53;;;;;;;393.40;138.35;;;;;;;8.33;92.84;98942.53;343670;28;951;-71
2021/12/06 00:13:03;;;;;;;391.57;135.10;;;;;;;8.32;92.54;98936.47;344402;28;2417;-71
2021/12/06 00:13:14;;;;;;;391.50;135.90;;;;;;;8.34;92.35;98945.06;342423;28;2096;-71
2021/12/06 00:13:24;;;;;;;389.17;134.77;;;;;;;8.32;92.68;98939.06;343656;28;1520;-71
2021/12/06 00:13:39;;;;;;;390.67;136.73;;;;;;;8.31;92.82;98939.09;344123;28;2073;-71
2021/12/06 00:13:50;;;;;;;390.45;137.70;;;;;;;8.33;92.61;98935.56;343903;28;2041;-71
2021/12/06 00:14:01;;;;;;;388.40;138.43;;;;;;;8.34;92.51;98932.03;344727;28;2045;-71
2021/12/06 00:14:12;;;;;;;389.42;138.73;;;;;;;8.34;92.72;98939.84;347463;28;1813;-71
2021/12/06 00:14:29;;;;;;;392.47;138.07;;;;;;;8.34;92.63;98934.63;345121;28;914;-71
2021/12/06 00:14:41;;;;;;;394.10;139.00;;;;;;;8.33;92.31;98930.34;343514;28;2305;-71
2021/12/06 00:14:51;;;;;;;392.70;138.43;;;;;;;8.33;92.45;98932.09;344899;28;1630;-71
2021/12/06 00:15:03;;;;;;;387.15;135.95;;;;;;;8.33;92.84;98932.09;344599;28;1439;-71
2021/12/06 00:15:14;;;;;;;385.92;135.73;;;;;;;8.34;92.34;98926.81;344835;28;1646;-70
2021/12/06 00:15:26;;;;;;;387.52;136.68;;;;;;;8.35;92.32;98925.06;343751;28;1018;-70
2021/12/06 00:15:36;;;;;;;393.08;138.82;;;;;;;8.34;92.46;98931.19;342325;28;2034;-70
2021/12/06 00:15:49;;;;;;;396.53;140.73;;;;;;;8.33;92.89;98927.72;342461;28;1566;-70
2021/12/06 00:16:01;;;;;;;393.58;137.10;;;;;;;8.32;92.82;98930.38;343720;28;1969;-70
2021/12/06 00:16:16;;;;;;;392.42;136.00;;;;;;;8.31;92.67;98929.53;343086;28;1668;-70
2021/12/06 00:16:27;;;;;;;389.58;137.48;;;;;;;8.30;92.70;98929.59;342845;28;1547;-70
2021/12/06 00:16:37;;;;;;;389.63;136.93;;;;;;;8.30;92.65;98925.22;343754;28;2172;-70
2021/12/06 00:16:48;;;;;;;391.73;135.93;;;;;;;8.33;92.68;98926.88;343092;28;1490;-70
2021/12/06 00:17:00;;;;;;;390.70;135.07;;;;;;;8.32;92.22;98920.81;342606;28;1746;-70
2021/12/06 00:17:11;;;;;;;388.95;132.88;;;;;;;8.32;92.56;98919.94;344102;28;1955;-70
2021/12/06 00:17:22;;;;;;;388.42;132.77;;;;;;;8.33;92.46;98932.94;344881;28;2215;-70
2021/12/06 00:17:32;;;;;;;389.03;134.30;;;;;;;8.34;92.73;98932.03;345596;28;1841;-70
2021/12/06 00:17:43;;;;;;;389.05;134.40;;;;;;;8.33;92.55;98932.94;345790;28;4256;-70
2021/12/06 00:17:53;;;;;;;389.50;135.07;;;;;;;8.35;92.34;98925.06;345014;28;1363;-70
2021/12/06 00:18:03;;;;;;;391.70;135.10;;;;;;;8.35;92.62;98925.06;344866;28;1943;-70
2021/12/06 00:18:14;;;;;;;392.83;136.73;;;;;;;8.33;92.63;98927.72;343758;28;2124;-70
2021/12/06 00:18:24;;;;;;;391.85;136.18;;;;;;;8.36;92.44;98925.91;343588;28;1616;-70
2021/12/06 00:18:35;;;;;;;390.07;136.10;;;;;;;8.36;92.64;98931.97;343606;28;1481;-70
2021/12/06 00:18:46;;;;;;;389.60;136.63;;;;;;;8.37;92.58;98922.38;344835;28;2138;-70
2021/12/06 00:18:57;;;;;;;387.45;136.10;;;;;;;8.37;92.58;98936.28;343805;28;1101;-70
2021/12/06 00:19:07;;;;;;;385.77;137.02;;;;;;;8.37;92.19;98925.00;343773;28;1102;-70
2021/12/06 00:19:17;;;;;;;389.53;137.93;;;;;;;8.38;92.17;98929.31;345627;28;2048;-70
2021/12/06 00:19:28;;;;;;;390.92;139.32;;;;;;;8.39;92.50;98936.22;345558;28;1724;-70
2021/12/06 00:19:39;;;;;;;391.13;138.13;;;;;;;8.39;92.53;98936.22;345715;28;1895;-70
2021/12/06 00:19:49;;;;;;;392.00;137.07;;;;;;;8.39;92.48;98934.44;345390;28;2016;-70
2021/12/06 00:20:00;;;;;;;393.97;136.93;;;;;;;8.38;92.16;98939.72;344329;28;2159;-70
2021/12/06 00:20:11;;;;;;;395.70;138.40;;;;;;;8.38;92.61;98934.50;345108;28;1024;-70
2021/12/06 00:20:22;;;;;;;395.00;138.52;;;;;;;8.37;92.12;98941.50;343643;28;1654;-70
2021/12/06 00:20:32;;;;;;;392.47;137.10;;;;;;;8.38;92.46;98935.34;342451;28;1546;-71
2021/12/06 00:20:43;;;;;;;392.98;138.40;;;;;;;8.36;92.29;98942.41;343773;28;1978;-70
2021/12/06 00:20:54;;;;;;;391.83;137.68;;;;;;;8.30;92.30;98938.25;342508;28;1141;-70
2021/12/06 00:21:04;;;;;;;390.90;139.55;;;;;;;8.32;92.65;98946.91;344041;28;1767;-70
2021/12/06 00:21:15;;;;;;;389.00;139.30;;;;;;;8.31;92.35;98934.75;344585;28;1661;-70
2021/12/06 00:21:25;;;;;;;391.33;141.13;;;;;;;8.33;92.66;98942.53;343825;28;948;-70
2021/12/06 00:21:36;;;;;;;393.13;140.47;;;;;;;8.35;91.97;98935.50;346163;28;1768;-70
2021/12/06 00:21:46;;;;;;;395.95;141.18;;;;;;;8.35;92.73;98940.69;343740;28;2124;-70
2021/12/06 00:21:57;;;;;;;397.00;140.50;;;;;;;8.34;92.59;98937.25;343697;28;1299;-70
2021/12/06 00:22:10;;;;;;;397.48;140.85;;;;;;;8.34;92.37;98937.25;345203;28;1104;-70
2021/12/06 00:22:23;;;;;;;393.88;138.75;;;;;;;8.37;92.37;98935.41;342293;28;2056;-70
2021/12/06 00:22:33;;;;;;;392.00;138.50;;;;;;;8.39;92.67;98938.81;345534;28;2003;-70
2021/12/06 00:22:43;;;;;;;390.77;138.23;;;;;;;8.39;92.35;98936.22;346462;28;2046;-71
2021/12/06 00:22:54;;;;;;;397.15;141.13;;;;;;;8.39;92.43;98942.28;345085;28;1200;-71
2021/12/06 00:23:04;;;;;;;398.30;139.97;;;;;;;8.38;92.59;98935.34;344896;28;2075;-72
2021/12/06 00:23:15;;;;;;;396.42;138.15;;;;;;;8.40;92.51;98940.50;343361;28;1861;-72
2021/12/06 00:23:27;;;;;;;393.80;136.27;;;;;;;8.37;92.05;98938.88;345074;28;1022;-71
2021/12/06 00:23:38;;;;;;;394.50;138.25;;;;;;;8.38;92.46;98940.56;345204;28;1085;-71
2021/12/06 00:23:48;;;;;;;395.42;140.27;;;;;;;8.39;92.24;98937.06;344463;28;2156;-71
2021/12/06 00:23:59;;;;;;;393.63;139.97;;;;;;;8.39;92.45;98942.28;343595;28;1383;-71
2021/12/06 00:24:09;;;;;;;393.08;139.43;;;;;;;8.40;92.19;98927.47;343903;28;908;-71
2021/12/06 00:24:19;;;;;;;394.63;137.13;;;;;;;8.41;92.58;98939.59;346527;28;2152;-71
2021/12/06 00:24:30;;;;;;;393.37;136.33;;;;;;;8.40;92.34;98930.94;345255;28;2113;-71
2021/12/06 00:24:40;;;;;;;394.20;138.15;;;;;;;8.40;92.25;98938.75;343712;28;1689;-71
2021/12/06 00:24:51;;;;;;;391.23;138.43;;;;;;;8.42;92.60;98930.88;343292;28;2261;-71
2021/12/06 00:25:02;;;;;;;390.30;137.60;;;;;;;8.40;91.90;98930.94;343931;28;2055;-71
2021/12/06 00:25:14;;;;;;;389.23;135.68;;;;;;;8.40;92.44;98932.69;343878;28;1895;-71
2021/12/06 00:25:25;;;;;;;390.58;135.00;;;;;;;8.40;92.09;98933.53;346456;28;1537;-71
2021/12/06 00:25:35;;;;;;;391.13;135.63;;;;;;;8.42;92.43;98936.06;344593;28;2155;-71
2021/12/06 00:25:46;;;;;;;393.92;136.07;;;;;;;8.40;91.99;98927.47;343707;28;2162;-71
2021/12/06 00:25:56;;;;;;;392.93;135.70;;;;;;;8.40;92.23;98932.69;342383;28;1183;-71
2021/12/06 00:26:09;;;;;;;392.30;137.20;;;;;;;8.41;92.17;98926.56;344955;28;2079;-71
2021/12/06 00:26:20;;;;;;;391.52;137.88;;;;;;;8.41;92.14;98926.56;343395;28;1792;-71
2021/12/06 00:26:30;;;;;;;392.88;138.13;;;;;;;8.40;92.44;98932.69;344849;28;1907;-71
2021/12/06 00:26:41;;;;;;;390.23;136.63;;;;;;;8.40;92.35;98927.47;344974;28;1285;-71
2021/12/06 00:26:51;;;;;;;389.47;136.53;;;;;;;8.42;92.33;98928.25;343676;28;1865;-71
2021/12/06 00:27:02;;;;;;;392.02;137.48;;;;;;;8.40;92.32;98927.47;342824;28;2062;-71
2021/12/06 00:27:12;;;;;;;397.38;140.02;;;;;;;8.39;92.16;98926.63;343751;28;1215;-71
2021/12/06 00:27:23;;;;;;;397.07;140.97;;;;;;;8.39;92.32;98926.63;347785;28;1377;-71
2021/12/06 00:27:33;;;;;;;399.05;142.82;;;;;;;8.40;92.33;98936.13;346324;28;2067;-71
2021/12/06 00:27:44;;;;;;;394.70;140.60;;;;;;;8.43;92.11;98932.56;346317;28;2147;-71
2021/12/06 00:27:54;;;;;;;394.45;139.70;;;;;;;8.44;92.25;98939.47;346574;28;855;-71
2021/12/06 00:28:05;;;;;;;392.27;137.90;;;;;;;8.43;92.27;98936.00;344810;28;2100;-71
2021/12/06 00:28:15;;;;;;;393.30;138.65;;;;;;;8.44;92.03;98936.84;344021;28;2104;-71
2021/12/06 00:28:26;;;;;;;393.50;139.27;;;;;;;8.43;92.46;98932.56;345045;28;882;-71
2021/12/06 00:28:37;;;;;;;395.60;140.73;;;;;;;8.43;92.57;98937.78;345270;28;2196;-71
2021/12/06 00:28:49;;;;;;;396.20;141.25;;;;;;;8.43;92.06;98936.00;344343;28;1031;-71
2021/12/06 00:28:59;;;;;;;394.45;139.38;;;;;;;8.44;92.10;98944.69;343607;28;2278;-71
2021/12/06 00:29:10;;;;;;;394.10;137.67;;;;;;;8.44;92.03;98939.47;345201;28;949;-71
2021/12/06 00:29:21;;;;;;;395.85;138.88;;;;;;;8.46;91.85;98941.09;344949;28;1939;-71
2021/12/06 00:29:31;;;;;;;395.23;136.27;;;;;;;8.45;92.22;98942.00;343978;28;2375;-71
2021/12/06 00:29:42;;;;;;;394.37;137.03;;;;;;;8.46;92.28;98945.47;344317;28;1789;-71
2021/12/06 00:29:53;;;;;;;392.80;135.63;;;;;;;8.47;92.20;98944.56;346255;28;1918;-71
2021/12/06 00:30:05;;;;;;;392.17;138.83;;;;;;;8.48;92.35;98949.69;344735;28;2046;-71
2021/12/06 00:30:16;;;;;;;393.08;140.10;;;;;;;8.48;91.94;98941.03;344650;28;2087;-71
2021/12/06 00:30:27;;;;;;;394.73;142.75;;;;;;;8.47;92.00;98940.19;342491;28;892;-71
2021/12/06 00:30:37;;;;;;;396.13;140.65;;;;;;;8.46;92.07;98940.25;344762;28;2204;-73
2021/12/06 00:30:48;;;;;;;397.87;138.23;;;;;;;8.47;92.29;98939.34;345491;28;2264;-71
2021/12/06 00:30:58;;;;;;;397.83;139.23;;;;;;;8.46;92.36;98942.84;346590;28;922;-71
2021/12/06 00:31:09;;;;;;;399.15;142.40;;;;;;;8.45;91.92;98941.16;345112;28;2776;-71
2021/12/06 00:31:20;;;;;;;398.63;142.32;;;;;;;8.44;91.88;98949.91;345712;28;1976;-71
2021/12/06 00:31:33;;;;;;;399.80;140.73;;;;;;;8.44;92.01;98942.06;344787;28;1724;-71
2021/12/06 00:31:43;;;;;;;396.10;138.48;;;;;;;8.43;92.23;98943.00;345381;28;1339;-71
2021/12/06 00:31:54;;;;;;;392.95;139.50;;;;;;;8.43;92.47;98943.84;346222;28;1936;-71
2021/12/06 00:32:04;;;;;;;390.23;141.37;;;;;;;8.41;91.83;98939.59;344318;28;1973;-72
2021/12/06 00:32:15;;;;;;;392.55;141.40;;;;;;;8.42;92.25;98947.34;343907;28;842;-72
2021/12/06 00:32:25;;;;;;;396.92;141.07;;;;;;;8.42;92.26;98952.56;343797;28;898;-72
2021/12/06 00:32:36;;;;;;;398.47;141.83;;;;;;;8.41;92.38;98947.41;344458;28;2107;-71
2021/12/06 00:32:46;;;;;;;398.60;144.43;;;;;;;8.41;92.34;98950.03;345099;28;2075;-71
2021/12/06 00:32:57;;;;;;;396.30;142.57;;;;;;;8.43;92.20;98950.81;345206;28;947;-71
2021/12/06 00:33:07;;;;;;;396.77;141.63;;;;;;;8.41;92.26;98950.03;346961;28;1691;-71
2021/12/06 00:33:17;;;;;;;393.93;138.70;;;;;;;8.42;92.44;98954.31;346890;28;1749;-71
2021/12/06 00:33:28;;;;;;;394.83;137.63;;;;;;;8.40;92.42;98948.34;345188;28;955;-71
2021/12/06 00:33:39;;;;;;;395.98;137.20;;;;;;;8.41;92.19;98957.84;345002;28;1663;-71
2021/12/06 00:33:56;;;;;;;398.70;138.48;;;;;;;8.40;91.96;98958.75;345048;28;1391;-71
2021/12/06 00:34:10;;;;;;;393.33;139.77;;;;;;;8.41;92.23;98955.25;343682;28;2197;-71
2021/12/06 00:34:21;;;;;;;392.20;138.75;;;;;;;8.42;92.00;98962.16;344236;28;2556;-71
2021/12/06 00:34:33;;;;;;;392.95;137.55;;;;;;;8.42;92.36;98952.56;345747;28;2423;-71
2021/12/06 00:34:43;;;;;;;395.65;138.75;;;;;;;8.43;92.49;98956.03;344693;28;894;-71
2021/12/06 00:34:54;;;;;;;392.83;137.60;;;;;;;8.44;92.06;98955.09;343179;28;1738;-71
2021/12/06 00:35:05;;;;;;;393.93;137.23;;;;;;;8.44;92.10;98957.72;342171;28;1608;-72
2021/12/06 00:35:21;;;;;;;395.05;138.15;;;;;;;8.42;92.36;98957.78;344994;28;1773;-71
2021/12/06 00:35:32;;;;;;;395.75;139.30;;;;;;;8.42;92.21;98954.31;342705;28;2100;-71
2021/12/06 00:35:42;;;;;;;391.85;138.98;;;;;;;8.42;92.01;98952.56;345304;28;1382;-71
2021/12/06 00:35:56;;;;;;;394.90;141.83;;;;;;;8.42;92.20;98949.13;345965;28;1782;-71
2021/12/06 00:36:15;;;;;;;396.55;140.85;;;;;;;8.42;92.54;98947.34;344948;28;2062;-71
2021/12/06 00:36:30;;;;;;;396.85;138.10;;;;;;;8.39;92.04;98946.63;346377;28;940;-71
2021/12/06 00:36:50;;;;;;;391.98;135.70;;;;;;;8.42;92.00;98949.97;343709;28;1505;-71
2021/12/06 00:37:05;;;;;;;390.17;137.70;;;;;;;8.43;92.06;98938.63;342418;28;2137;-71
2021/12/06 00:37:41;;;;;;;390.45;136.40;;;;;;;8.39;92.26;98937.06;344960;28;946;-71
2021/12/06 00:37:58;;;;;;;389.83;136.90;;;;;;;8.40;92.25;98937.91;343701;28;2161;-71
2021/12/06 00:38:08;;;;;;;391.75;135.90;;;;;;;8.39;92.19;98929.22;344557;28;2015;-71
2021/12/06 00:38:19;;;;;;;391.90;135.77;;;;;;;8.39;92.31;98942.28;344628;28;1782;-72
2021/12/06 00:38:33;;;;;;;394.60;137.30;;;;;;;8.38;92.40;98930.16;345207;28;899;-72
2021/12/06 00:38:45;;;;;;;393.65;135.90;;;;;;;8.39;92.27;98931.00;346610;28;908;-72
2021/12/06 00:38:55;;;;;;;395.33;135.55;;;;;;;8.36;92.57;98933.72;345085;28;1681;-72
2021/12/06 00:39:08;;;;;;;397.23;138.73;;;;;;;8.40;92.35;98935.28;345075;28;1539;-71
2021/12/06 00:39:19;;;;;;;396.98;139.48;;;;;;;8.40;92.50;98930.09;344794;28;1442;-71
2021/12/06 00:39:29;;;;;;;391.65;136.32;;;;;;;8.39;92.38;98921.41;345097;28;1365;-71
2021/12/06 00:39:39;;;;;;;386.13;134.43;;;;;;;8.41;92.23;98926.56;343070;28;2559;-71
2021/12/06 00:39:54;;;;;;;387.57;135.57;;;;;;;8.44;92.10;98923.81;344427;28;1787;-71
2021/12/06 00:40:08;;;;;;;388.98;135.88;;;;;;;8.43;92.50;98925.59;341420;28;1774;-70
2021/12/06 00:40:19;;;;;;;390.10;136.35;;;;;;;8.45;92.42;98926.38;343875;28;1970;-71
2021/12/06 00:40:41;;;;;;;392.17;139.03;;;;;;;8.45;92.23;98922.91;344228;28;1617;-71
2021/12/06 00:40:52;;;;;;;392.60;136.98;;;;;;;8.44;92.20;98926.44;343721;28;956;-71
2021/12/06 00:41:03;;;;;;;388.83;135.13;;;;;;;8.42;92.28;98930.88;342376;28;2086;-71
2021/12/06 00:41:13;;;;;;;387.38;135.40;;;;;;;8.40;92.74;98923.09;342447;28;1244;-71
2021/12/06 00:41:23;;;;;;;388.10;137.23;;;;;;;8.40;92.49;98922.25;344498;28;1790;-70
2021/12/06 00:41:35;;;;;;;390.07;136.13;;;;;;;8.40;92.14;98922.25;344982;28;2279;-70
2021/12/06 00:41:45;;;;;;;392.82;136.14;;;;;;;8.39;92.68;98921.41;343763;28;1287;-71
2021/12/06 00:41:55;;;;;;;392.23;136.37;;;;;;;8.40;92.56;98923.09;343641;28;1837;-72
2021/12/06 00:42:06;;;;;;;393.57;138.10;;;;;;;8.38;92.35;98924.09;343633;28;2047;-72
2021/12/06 00:42:16;;;;;;;389.75;136.85;;;;;;;8.37;92.31;98928.44;345124;28;1220;-72
2021/12/06 00:42:30;;;;;;;388.23;135.73;;;;;;;8.34;92.67;98919.00;343607;28;2061;-72
2021/12/06 00:42:41;;;;;;;386.67;134.45;;;;;;;8.34;92.50;98924.22;346260;28;2021;-72
2021/12/06 00:42:51;;;;;;;386.40;132.13;;;;;;;8.34;92.67;98926.81;344940;28;2027;-72
2021/12/06 00:43:02;;;;;;;386.57;132.13;;;;;;;8.36;92.41;98933.72;345195;28;1378;-72
2021/12/06 00:43:13;;;;;;;388.10;132.37;;;;;;;8.36;92.32;98929.38;346274;28;1494;-72
2021/12/06 00:43:23;;;;;;;388.63;134.05;;;;;;;8.36;92.37;98929.38;345506;28;2072;-72
2021/12/06 00:43:33;;;;;;;387.30;135.43;;;;;;;8.38;92.49;98934.50;343822;28;958;-72
2021/12/06 00:43:44;;;;;;;386.53;135.67;;;;;;;8.39;92.58;98931.00;345097;28;1991;-72
2021/12/06 00:43:54;;;;;;;385.73;136.03;;;;;;;8.39;92.85;98937.06;346220;28;2043;-71
2021/12/06 00:44:07;;;;;;;388.40;135.80;;;;;;;8.40;92.56;98937.91;344715;28;2156;-71
2021/12/06 00:44:17;;;;;;;390.88;137.40;;;;;;;8.40;92.72;98932.69;347849;28;1246;-71
2021/12/06 00:44:27;;;;;;;393.50;137.88;;;;;;;8.40;92.67;98937.91;345772;28;1033;-71
2021/12/06 00:44:38;;;;;;;392.83;137.37;;;;;;;8.42;92.54;98936.06;342934;28;2421;-71
2021/12/06 00:44:48;;;;;;;394.58;137.07;;;;;;;8.42;92.96;98936.06;343625;28;1243;-71
2021/12/06 00:44:59;;;;;;;397.77;136.03;;;;;;;8.43;92.43;98943.00;344644;28;2024;-71
2021/12/06 00:45:10;;;;;;;397.67;137.23;;;;;;;8.43;92.79;98943.00;343039;28;1857;-71
2021/12/06 00:45:20;;;;;;;399.73;138.52;;;;;;;8.41;92.76;98929.16;345163;28;1359;-71
2021/12/06 00:45:31;;;;;;;396.50;139.05;;;;;;;8.43;92.45;98943.00;342959;28;1195;-71
2021/12/06 00:45:41;;;;;;;395.30;138.50;;;;;;;8.43;92.63;98938.63;347171;28;1331;-71
2021/12/06 00:45:52;;;;;;;391.87;137.53;;;;;;;8.42;92.45;98941.28;349047;28;1972;-71
2021/12/06 00:46:02;;;;;;;392.15;136.73;;;;;;;8.43;92.36;98937.78;344902;28;926;-71
2021/12/06 00:46:12;;;;;;;394.70;138.17;;;;;;;8.44;92.75;98936.84;343740;28;1862;-71
2021/12/06 00:46:23;;;;;;;397.33;138.45;;;;;;;8.43;92.41;98943.00;342440;28;1419;-71
2021/12/06 00:46:34;;;;;;;397.57;139.77;;;;;;;8.42;92.33;98936.06;343786;28;1176;-71
2021/12/06 00:46:45;;;;;;;396.10;139.30;;;;;;;8.43;92.82;98941.22;345095;28;2024;-71
2021/12/06 00:46:55;;;;;;;396.53;140.33;;;;;;;8.43;92.30;98940.38;346865;28;1906;-72
2021/12/06 00:47:06;;;;;;;397.77;140.45;;;;;;;8.40;92.32;98938.75;345162;28;1345;-72
2021/12/06 00:47:17;;;;;;;397.30;140.18;;;;;;;8.41;92.95;98939.59;344039;28;1225;-72
2021/12/06 00:47:27;;;;;;;401.13;139.83;;;;;;;8.40;92.65;98940.50;344726;28;1664;-71
2021/12/06 00:47:37;;;;;;;399.90;139.35;;;;;;;8.40;92.77;98930.09;345245;28;2111;-71
2021/12/06 00:47:48;;;;;;;401.13;139.23;;;;;;;8.38;92.76;98940.56;344107;28;1018;-71
2021/12/06 00:47:58;;;;;;;396.67;136.60;;;;;;;8.39;92.74;98936.22;344690;28;2182;-71
2021/12/06 00:48:09;;;;;;;396.93;134.73;;;;;;;8.38;92.94;98940.56;343949;28;2080;-72
2021/12/06 00:48:19;;;;;;;396.73;133.88;;;;;;;8.38;92.61;98935.34;344098;28;897;-71
2021/12/06 00:48:29;;;;;;;397.33;135.33;;;;;;;8.37;92.68;98938.03;344027;28;1938;-72
2021/12/06 00:48:40;;;;;;;399.13;139.57;;;;;;;8.38;92.82;98939.72;344395;28;2134;-71
2021/12/06 00:48:50;;;;;;;400.27;142.30;;;;;;;8.39;93.13;98941.41;343807;28;2552;-71
2021/12/06 00:49:01;;;;;;;401.20;143.45;;;;;;;8.39;92.91;98936.22;344916;28;1959;-71
2021/12/06 00:49:11;;;;;;;397.97;141.47;;;;;;;8.39;93.00;98926.63;344551;28;947;-71
2021/12/06 00:49:21;;;;;;;397.77;139.83;;;;;;;8.40;92.75;98932.69;344102;28;1061;-71
2021/12/06 00:49:32;;;;;;;396.70;138.38;;;;;;;8.40;92.84;98932.69;345042;28;2245;-71
2021/12/06 00:49:45;;;;;;;398.80;137.65;;;;;;;8.41;92.93;98935.22;343407;28;1412;-71
2021/12/06 00:49:55;;;;;;;397.35;136.93;;;;;;;8.42;92.86;98941.28;343665;28;1923;-71
2021/12/06 00:50:06;;;;;;;396.10;135.47;;;;;;;8.43;92.72;98943.00;345492;28;1901;-71
2021/12/06 00:50:17;;;;;;;392.40;131.23;;;;;;;8.43;92.66;98932.56;344046;28;2119;-71
2021/12/06 00:50:29;;;;;;;392.45;130.63;;;;;;;8.42;92.94;98936.06;344517;28;2284;-71
2021/12/06 00:50:41;;;;;;;392.65;133.68;;;;;;;8.43;92.53;98936.00;344445;28;1775;-71
2021/12/06 00:50:51;;;;;;;394.67;136.15;;;;;;;8.44;92.67;98940.31;343978;28;1800;-71
2021/12/06 00:51:01;;;;;;;394.90;137.48;;;;;;;8.44;92.77;98942.91;342795;28;1738;-71
2021/12/06 00:51:13;;;;;;;400.45;137.23;;;;;;;8.44;92.61;98934.25;343337;28;943;-71
2021/12/06 00:51:24;;;;;;;401.56;138.52;;;;;;;8.45;92.79;98936.78;345020;28;1816;-71
2021/12/06 00:51:34;;;;;;;399.40;138.30;;;;;;;8.46;92.67;98932.44;344072;28;1192;-71
2021/12/06 00:51:45;;;;;;;399.35;138.38;;;;;;;8.45;92.81;98935.94;347682;28;2131;-71
2021/12/06 00:51:55;;;;;;;397.53;137.03;;;;;;;8.46;92.50;98937.63;346204;28;2405;-71
2021/12/06 00:52:06;;;;;;;394.48;134.45;;;;;;;8.44;92.61;98926.44;342471;28;1345;-71
2021/12/06 00:52:17;;;;;;;389.77;133.88;;;;;;;8.46;92.65;98933.28;343867;28;2050;-71
2021/12/06 00:52:27;;;;;;;393.57;134.60;;;;;;;8.47;92.72;98928.91;342544;28;1987;-71
2021/12/06 00:52:38;;;;;;;395.73;136.27;;;;;;;8.47;92.59;98924.53;344025;28;1220;-71
2021/12/06 00:52:49;;;;;;;396.00;136.23;;;;;;;8.47;92.82;98926.31;345524;28;985;-71
2021/12/06 00:52:59;;;;;;;393.35;136.73;;;;;;;8.45;93.02;98926.38;346744;28;1911;-71
2021/12/06 00:53:10;;;;;;;394.40;135.67;;;;;;;8.45;92.79;98926.38;343962;28;2185;-72
2021/12/06 00:53:21;;;;;;;392.58;132.60;;;;;;;8.43;92.38;98928.19;345453;28;1481;-72
2021/12/06 00:53:31;;;;;;;395.90;132.90;;;;;;;8.43;92.72;98927.34;344922;28;2044;-71
2021/12/06 00:53:42;;;;;;;393.48;131.88;;;;;;;8.42;92.52;98930.88;343419;28;2183;-71
2021/12/06 00:53:52;;;;;;;395.08;134.18;;;;;;;8.41;93.14;98926.56;342688;28;1136;-71